createdAt,value
2018-04-27T00:02:27.459Z,61.30
2018-04-27T00:04:55.069Z,61.60
2018-04-27T00:07:22.678Z,63.30
2018-04-27T00:09:50.267Z,62.70
2018-04-27T00:12:17.890Z,63.30
2018-04-27T00:14:45.473Z,63.70
2018-04-27T00:17:13.189Z,63.50
2018-04-27T00:19:41.679Z,64.50
2018-04-27T00:22:09.369Z,64.50
2018-04-27T00:24:36.946Z,64.70
2018-04-27T00:27:04.571Z,63.80
2018-04-27T00:29:32.444Z,65.40
2018-04-27T00:32:00.173Z,65.50
2018-04-27T00:34:28.608Z,64.10
2018-04-27T00:36:56.334Z,63.90
2018-04-27T00:39:23.933Z,63.30
2018-04-27T00:41:51.553Z,64.50
2018-04-27T00:44:19.305Z,65.40
2018-04-27T00:46:46.921Z,65.50
2018-04-27T00:49:14.554Z,65.90
2018-04-27T00:51:42.381Z,65.40
2018-04-27T00:54:10.762Z,66.10
2018-04-27T00:56:39.101Z,65.50
2018-04-27T00:59:06.887Z,65.50
2018-04-27T01:01:35.453Z,65.70
2018-04-27T01:04:03.034Z,65.60
2018-04-27T01:06:31.413Z,66.80
2018-04-27T01:08:59.758Z,67.30
2018-04-27T01:11:27.374Z,67.30
2018-04-27T01:13:55.082Z,66.30
2018-04-27T01:16:22.709Z,66.70
2018-04-27T01:18:50.370Z,67.40
2018-04-27T01:21:18.055Z,68.10
2018-04-27T01:23:45.668Z,68.30
2018-04-27T01:26:13.282Z,69.60
2018-04-27T01:28:40.880Z,70.10
2018-04-27T01:31:08.506Z,66.90
2018-04-27T01:33:36.134Z,67.70
2018-04-27T01:36:03.760Z,68.10
2018-04-27T01:38:31.366Z,68.60
2018-04-27T01:40:58.979Z,69.00
2018-04-27T01:43:26.730Z,66.80
2018-04-27T01:45:55.126Z,65.00
2018-04-27T01:48:22.753Z,65.00
2018-04-27T01:50:50.362Z,65.80
2018-04-27T01:53:17.989Z,64.50
2018-04-27T01:55:46.374Z,65.00
2018-04-27T01:58:14.753Z,64.90
2018-04-27T02:00:43.291Z,65.30
2018-04-27T02:03:10.874Z,65.20
2018-04-27T02:05:39.266Z,66.90
2018-04-27T02:08:07.622Z,67.10
2018-04-27T02:10:35.359Z,67.00
2018-04-27T02:13:03.082Z,67.80
2018-04-27T02:15:30.797Z,68.00
2018-04-27T02:17:58.400Z,68.50
2018-04-27T02:20:25.963Z,68.40
2018-04-27T02:22:53.538Z,68.50
2018-04-27T02:25:21.249Z,69.90
2018-04-27T02:27:48.855Z,70.10
2018-04-27T02:30:16.416Z,70.20
2018-04-27T02:32:44.033Z,70.50
2018-04-27T02:35:11.585Z,70.10
2018-04-27T02:37:39.193Z,70.60
2018-04-27T02:40:06.782Z,70.20
2018-04-27T02:42:34.393Z,70.30
2018-04-27T02:45:01.990Z,71.20
2018-04-27T02:47:29.654Z,71.20
2018-04-27T02:49:57.249Z,72.00
2018-04-27T02:52:25.570Z,73.00
2018-04-27T02:54:53.178Z,73.00
2018-04-27T02:57:20.806Z,71.50
2018-04-27T02:59:48.445Z,71.00
2018-04-27T03:02:16.173Z,70.10
2018-04-27T03:04:44.531Z,70.80
2018-04-27T03:07:12.230Z,70.80
2018-04-27T03:09:39.781Z,69.30
2018-04-27T03:12:07.356Z,68.90
2018-04-27T03:14:35.071Z,68.80
2018-04-27T03:17:02.653Z,69.60
2018-04-27T03:19:30.306Z,71.10
2018-04-27T03:21:58.777Z,72.10
2018-04-27T03:24:27.158Z,72.70
2018-04-27T03:26:55.625Z,72.10
2018-04-27T03:29:23.186Z,71.90
2018-04-27T03:31:50.780Z,72.40
2018-04-27T03:34:18.398Z,71.60
2018-04-27T03:36:46.066Z,71.00
2018-04-27T03:39:13.650Z,72.10
2018-04-27T03:41:41.319Z,72.10
2018-04-27T03:44:08.893Z,71.50
2018-04-27T03:46:36.454Z,72.80
2018-04-27T03:49:04.053Z,72.40
2018-04-27T03:51:31.605Z,73.20
2018-04-27T03:53:59.173Z,74.10
2018-04-27T03:56:26.870Z,74.40
2018-04-27T03:58:54.502Z,74.30
2018-04-27T04:01:34.101Z,74.60
2018-04-27T04:04:13.519Z,74.70
2018-04-27T04:06:41.080Z,75.90
2018-04-27T04:09:08.761Z,75.40
2018-04-27T04:11:36.354Z,75.90
2018-04-27T04:14:04.117Z,75.00
2018-04-27T04:16:31.828Z,74.50
2018-04-27T04:18:59.381Z,75.20
2018-04-27T04:21:26.973Z,73.20
2018-04-27T04:23:54.516Z,74.40
2018-04-27T04:26:22.161Z,74.40
2018-04-27T04:28:49.729Z,75.00
2018-04-27T04:31:17.446Z,74.90
2018-04-27T04:33:45.772Z,75.30
2018-04-27T04:36:13.437Z,75.30
2018-04-27T04:38:41.005Z,75.50
2018-04-27T04:41:08.665Z,74.40
2018-04-27T04:43:36.168Z,74.50
2018-04-27T04:46:03.793Z,74.10
2018-04-27T04:48:31.368Z,74.70
2018-04-27T04:50:59.702Z,74.30
2018-04-27T04:53:27.405Z,74.10
2018-04-27T04:55:55.122Z,73.10
2018-04-27T04:58:22.698Z,72.90
2018-04-27T05:00:50.276Z,72.20
2018-04-27T05:03:17.934Z,73.90
2018-04-27T05:05:45.658Z,73.90
2018-04-27T05:08:13.358Z,73.60
2018-04-27T05:10:40.905Z,72.50
2018-04-27T05:13:08.513Z,72.90
2018-04-27T05:15:36.061Z,72.10
2018-04-27T05:18:07.951Z,72.50
2018-04-27T05:20:35.502Z,72.50
2018-04-27T05:23:03.084Z,74.10
2018-04-27T05:25:30.656Z,73.10
2018-04-27T05:27:58.386Z,71.30
2018-04-27T05:30:25.987Z,72.00
2018-04-27T05:33:04.656Z,71.20
2018-04-27T05:35:32.226Z,72.00
2018-04-27T05:37:59.933Z,72.30
2018-04-27T05:40:27.650Z,72.20
2018-04-27T05:42:55.256Z,73.60
2018-04-27T05:45:22.974Z,73.10
2018-04-27T05:47:50.553Z,72.40
2018-04-27T05:50:18.178Z,71.90
2018-04-27T05:52:45.758Z,71.70
2018-04-27T05:55:13.342Z,71.30
2018-04-27T05:57:40.937Z,71.10
2018-04-27T06:00:08.494Z,70.70
2018-04-27T06:02:36.081Z,70.90
2018-04-27T06:05:03.646Z,71.60
2018-04-27T06:07:31.497Z,70.00
2018-04-27T06:09:59.192Z,70.00
2018-04-27T06:12:26.822Z,70.00
2018-04-27T06:14:54.620Z,70.30
2018-04-27T06:17:22.220Z,70.00
2018-04-27T06:19:50.625Z,69.80
2018-04-27T06:22:18.239Z,69.80
2018-04-27T06:24:45.871Z,66.90
2018-04-27T06:27:13.438Z,67.60
2018-04-27T06:29:41.022Z,67.00
2018-04-27T06:32:09.356Z,67.50
2018-04-27T06:34:36.961Z,67.30
2018-04-27T06:37:04.522Z,65.40
2018-04-27T06:39:32.871Z,64.90
2018-04-27T06:42:01.978Z,63.00
2018-04-27T06:44:29.534Z,63.00
2018-04-27T06:46:57.155Z,62.70
2018-04-27T06:49:24.911Z,61.50
2018-04-27T06:51:52.518Z,62.00
2018-04-27T06:54:20.070Z,60.30
2018-04-27T06:56:47.771Z,62.70
2018-04-27T06:59:15.413Z,59.90
2018-04-27T07:01:42.950Z,61.80
2018-04-27T07:04:10.508Z,60.10
2018-04-27T07:06:38.100Z,59.20
2018-04-27T07:09:05.779Z,57.70
2018-04-27T07:11:33.446Z,57.60
2018-04-27T07:14:01.739Z,56.10
2018-04-27T07:16:29.336Z,56.10
2018-04-27T07:18:57.780Z,56.00
2018-04-27T07:21:25.369Z,55.20
2018-04-27T07:23:52.971Z,52.30
2018-04-27T07:26:20.678Z,51.70
2018-04-27T07:28:48.292Z,51.20
2018-04-27T07:31:15.849Z,50.40
2018-04-27T07:33:43.423Z,50.70
2018-04-27T07:36:11.013Z,49.00
2018-04-27T07:38:38.594Z,50.10
2018-04-27T07:41:06.945Z,48.30
2018-04-27T07:43:34.515Z,48.30
2018-04-27T07:46:02.113Z,48.10
2018-04-27T07:48:29.775Z,46.90
2018-04-27T07:50:57.357Z,46.50
2018-04-27T07:53:24.950Z,45.50
2018-04-27T07:55:52.535Z,43.50
2018-04-27T07:58:20.125Z,44.80
2018-04-27T08:00:47.780Z,45.10
2018-04-27T08:03:15.340Z,44.30
2018-04-27T08:05:42.944Z,43.80
2018-04-27T08:08:10.539Z,42.20
2018-04-27T08:10:38.106Z,42.70
2018-04-27T08:13:05.697Z,44.30
2018-04-27T08:15:33.427Z,39.50
2018-04-27T08:18:01.017Z,37.60
2018-04-27T08:20:28.609Z,40.60
2018-04-27T08:22:56.186Z,38.70
2018-04-27T08:25:24.617Z,35.60
2018-04-27T08:27:52.245Z,35.60
2018-04-27T08:30:20.028Z,37.10
2018-04-27T08:32:48.360Z,33.20
2018-04-27T08:35:16.702Z,34.30
2018-04-27T08:37:44.473Z,32.70
2018-04-27T08:40:12.053Z,33.50
2018-04-27T08:42:40.461Z,33.40
2018-04-27T08:45:08.028Z,33.30
2018-04-27T08:47:35.794Z,34.00
2018-04-27T08:50:03.358Z,33.60
2018-04-27T08:52:30.920Z,33.00
2018-04-27T08:54:58.683Z,33.90
2018-04-27T08:57:26.250Z,33.20
2018-04-27T08:59:53.848Z,33.10
2018-04-27T09:02:22.172Z,33.90
2018-04-27T09:04:49.778Z,33.50
2018-04-27T09:07:18.302Z,35.00
2018-04-27T09:09:45.933Z,34.20
2018-04-27T09:12:14.261Z,33.80
2018-04-27T09:14:41.841Z,33.70
2018-04-27T09:17:09.515Z,33.50
2018-04-27T09:19:38.634Z,33.80
2018-04-27T09:22:07.221Z,32.50
2018-04-27T09:24:34.827Z,32.50
2018-04-27T09:27:02.573Z,34.30
2018-04-27T09:29:30.133Z,32.30
2018-04-27T09:31:57.713Z,32.60
2018-04-27T09:34:25.365Z,32.50
2018-04-27T09:36:53.062Z,33.00
2018-04-27T09:39:21.433Z,32.20
2018-04-27T09:41:49.834Z,32.50
2018-04-27T09:44:17.440Z,32.70
2018-04-27T09:46:45.043Z,34.00
2018-04-27T09:49:13.563Z,31.30
2018-04-27T09:51:41.199Z,31.10
2018-04-27T09:54:08.763Z,31.90
2018-04-27T09:56:36.377Z,32.70
2018-04-27T09:59:03.995Z,32.00
2018-04-27T10:01:31.593Z,30.70
2018-04-27T10:03:59.156Z,36.00
2018-04-27T10:06:26.717Z,29.70
2018-04-27T10:08:55.245Z,32.60
2018-04-27T10:11:22.832Z,32.60
2018-04-27T10:13:50.391Z,33.40
2018-04-27T10:16:18.165Z,33.00
2018-04-27T10:18:45.749Z,32.30
2018-04-27T10:21:14.181Z,30.90
2018-04-27T10:23:41.778Z,31.00
2018-04-27T10:26:09.484Z,33.30
2018-04-27T10:28:37.118Z,31.40
2018-04-27T10:31:05.534Z,30.90
2018-04-27T10:33:33.046Z,30.90
2018-04-27T10:36:01.397Z,31.40
2018-04-27T10:38:28.974Z,31.40
2018-04-27T10:40:56.559Z,30.80
2018-04-27T10:43:24.123Z,30.60
2018-04-27T10:45:51.724Z,32.10
2018-04-27T10:48:19.464Z,31.20
2018-04-27T10:50:47.060Z,30.90
2018-04-27T10:53:14.629Z,29.90
2018-04-27T10:55:42.986Z,32.50
2018-04-27T10:58:10.633Z,32.60
2018-04-27T11:00:38.213Z,32.40
2018-04-27T11:03:05.885Z,30.90
2018-04-27T11:05:34.284Z,31.90
2018-04-27T11:08:01.914Z,31.90
2018-04-27T11:10:29.628Z,32.40
2018-04-27T11:12:57.196Z,31.70
2018-04-27T11:15:24.805Z,32.40
2018-04-27T11:17:53.293Z,33.60
2018-04-27T11:20:21.624Z,34.80
2018-04-27T11:22:49.223Z,34.20
2018-04-27T11:25:17.565Z,34.40
2018-04-27T11:27:45.189Z,34.40
2018-04-27T11:30:12.811Z,35.10
2018-04-27T11:32:40.449Z,38.90
2018-04-27T11:35:08.036Z,35.60
2018-04-27T11:37:36.494Z,37.90
2018-04-27T11:40:04.081Z,37.30
2018-04-27T11:42:32.397Z,38.00
2018-04-27T11:45:00.842Z,38.00
2018-04-27T11:47:28.498Z,36.00
2018-04-27T11:49:56.860Z,35.80
2018-04-27T11:52:25.192Z,36.60
2018-04-27T11:54:52.796Z,36.50
2018-04-27T11:57:21.133Z,37.30
2018-04-27T11:59:48.744Z,37.30
2018-04-27T12:02:17.077Z,35.00
2018-04-27T12:04:44.662Z,34.90
2018-04-27T12:07:12.241Z,36.10
2018-04-27T12:09:40.595Z,35.70
2018-04-27T12:12:08.217Z,35.60
2018-04-27T12:14:35.793Z,38.70
2018-04-27T12:17:03.413Z,37.30
2018-04-27T12:19:31.131Z,36.60
2018-04-27T12:21:58.755Z,36.70
2018-04-27T12:24:26.499Z,37.40
2018-04-27T12:26:54.831Z,37.30
2018-04-27T12:29:22.415Z,37.40
2018-04-27T12:31:50.083Z,36.00
2018-04-27T12:34:17.582Z,35.80
2018-04-27T12:36:45.173Z,36.40
2018-04-27T12:39:12.853Z,37.80
2018-04-27T12:41:41.210Z,36.00
2018-04-27T12:44:09.749Z,39.20
2018-04-27T12:46:37.351Z,39.30
2018-04-27T12:49:06.493Z,35.90
2018-04-27T12:51:34.153Z,35.80
2018-04-27T12:54:01.832Z,37.70
2018-04-27T12:56:29.404Z,36.80
2018-04-27T12:58:57.013Z,38.30
2018-04-27T13:01:24.587Z,38.40
2018-04-27T13:03:52.405Z,34.70
2018-04-27T13:06:20.025Z,36.10
2018-04-27T13:08:47.625Z,35.30
2018-04-27T13:11:15.294Z,35.00
2018-04-27T13:13:43.654Z,35.90
2018-04-27T13:16:11.217Z,36.00
2018-04-27T13:18:38.913Z,38.20
2018-04-27T13:21:06.537Z,37.60
2018-04-27T13:23:34.355Z,36.00
2018-04-27T13:26:01.941Z,37.20
2018-04-27T13:28:29.530Z,38.10
2018-04-27T13:30:57.949Z,37.00
2018-04-27T13:33:25.565Z,36.90
2018-04-27T13:35:54.024Z,40.50
2018-04-27T13:38:21.772Z,40.50
2018-04-27T13:40:49.433Z,36.30
2018-04-27T13:43:17.047Z,36.30
2018-04-27T13:45:45.375Z,38.50
2018-04-27T13:48:13.161Z,38.20
2018-04-27T13:50:41.523Z,38.00
2018-04-27T13:53:09.308Z,37.70
2018-04-27T13:55:37.673Z,36.00
2018-04-27T13:58:05.230Z,36.00
2018-04-27T14:00:32.967Z,35.60
2018-04-27T14:03:00.627Z,36.70
2018-04-27T14:05:28.157Z,35.00
2018-04-27T14:07:55.711Z,38.10
2018-04-27T14:10:23.327Z,36.10
2018-04-27T14:12:50.893Z,34.90
2018-04-27T14:15:19.273Z,38.10
2018-04-27T14:17:47.703Z,36.30
2018-04-27T14:20:15.294Z,36.30
2018-04-27T14:22:43.021Z,36.10
2018-04-27T14:25:11.127Z,38.10
2018-04-27T14:27:38.823Z,37.70
2018-04-27T14:30:06.442Z,38.20
2018-04-27T14:32:34.192Z,36.00
2018-04-27T14:35:01.813Z,38.00
2018-04-27T14:37:29.649Z,36.30
2018-04-27T14:39:57.984Z,36.80
2018-04-27T14:42:25.643Z,36.80
2018-04-27T14:44:53.222Z,36.10
2018-04-27T14:47:20.886Z,36.00
2018-04-27T14:49:48.445Z,34.10
2018-04-27T14:52:16.159Z,34.60
2018-04-27T14:54:43.889Z,35.40
2018-04-27T14:57:12.354Z,35.10
2018-04-27T14:59:40.185Z,35.10
2018-04-27T15:02:07.854Z,36.80
2018-04-27T15:04:35.473Z,34.10
2018-04-27T15:07:03.146Z,34.90
2018-04-27T15:09:30.873Z,36.70
2018-04-27T15:11:58.558Z,35.00
2018-04-27T15:14:26.172Z,34.00
2018-04-27T15:16:53.738Z,34.00
2018-04-27T15:19:22.171Z,33.90
2018-04-27T15:21:49.757Z,33.80
2018-04-27T15:24:17.466Z,34.30
2018-04-27T15:26:45.829Z,34.10
2018-04-27T15:29:14.165Z,34.50
2018-04-27T15:31:41.790Z,33.90
2018-04-27T15:34:09.347Z,34.70
2018-04-27T15:36:36.982Z,34.80
2018-04-27T15:39:04.539Z,33.10
2018-04-27T15:41:32.921Z,32.60
2018-04-27T15:44:01.268Z,32.90
2018-04-27T15:46:28.880Z,32.90
2018-04-27T15:48:56.611Z,33.10
2018-04-27T15:51:24.217Z,32.50
2018-04-27T15:53:51.796Z,32.80
2018-04-27T15:56:19.446Z,33.20
2018-04-27T15:58:47.012Z,32.20
2018-04-27T16:01:14.597Z,32.20
2018-04-27T16:03:42.199Z,34.60
2018-04-27T16:06:10.797Z,33.00
2018-04-27T16:08:38.355Z,33.00
2018-04-27T16:11:05.953Z,33.50
2018-04-27T16:16:37.285Z,35.40
2018-04-27T16:19:04.850Z,34.30
2018-04-27T16:21:32.568Z,34.60
2018-04-27T16:24:01.041Z,35.60
2018-04-27T16:26:32.273Z,36.00
2018-04-27T16:28:59.863Z,35.90
2018-04-27T16:31:28.357Z,37.60
2018-04-27T16:33:56.018Z,36.10
2018-04-27T16:36:23.637Z,37.10
2018-04-27T16:38:51.224Z,36.80
2018-04-27T16:41:18.793Z,37.30
2018-04-27T16:43:46.519Z,36.40
2018-04-27T16:46:15.069Z,36.80
2018-04-27T16:48:42.651Z,36.80
2018-04-27T16:51:10.331Z,37.00
2018-04-27T16:53:38.657Z,37.20
2018-04-27T16:56:06.409Z,37.10
2018-04-27T16:58:33.970Z,37.60
2018-04-27T17:01:01.562Z,38.10
2018-04-27T17:03:29.135Z,37.10
2018-04-27T17:05:57.621Z,37.70
2018-04-27T17:08:26.053Z,38.30
2018-04-27T17:10:53.662Z,38.30
2018-04-27T17:13:22.022Z,39.30
2018-04-27T17:15:49.633Z,39.30
2018-04-27T17:18:17.198Z,38.50
2018-04-27T17:20:44.889Z,38.60
2018-04-27T17:23:12.561Z,38.60
2018-04-27T17:25:40.898Z,40.00
2018-04-27T17:28:08.564Z,39.80
2018-04-27T17:30:36.137Z,40.00
2018-04-27T17:33:03.742Z,40.10
2018-04-27T17:35:31.317Z,41.10
2018-04-27T17:37:59.082Z,41.30
2018-04-27T17:40:26.700Z,41.00
2018-04-27T17:42:54.248Z,40.30
2018-04-27T17:45:21.824Z,40.30
2018-04-27T17:47:50.179Z,40.40
2018-04-27T17:50:17.780Z,40.40
2018-04-27T17:52:45.373Z,40.40
2018-04-27T17:55:12.950Z,40.10
2018-04-27T17:57:40.661Z,40.20
2018-04-27T18:00:08.218Z,39.00
2018-04-27T18:02:35.822Z,40.00
2018-04-27T18:05:03.500Z,38.40
2018-04-27T18:07:31.090Z,39.10
2018-04-27T18:09:58.682Z,39.20
2018-04-27T18:12:26.382Z,39.50
2018-04-27T18:14:53.981Z,40.30
2018-04-27T18:17:21.560Z,40.70
2018-04-27T18:19:49.251Z,34.90
2018-04-27T18:22:16.966Z,34.60
2018-04-27T18:24:44.533Z,33.60
2018-04-27T18:27:12.112Z,33.70
2018-04-27T18:29:39.862Z,32.90
2018-04-27T18:32:07.461Z,32.30
2018-04-27T18:34:35.126Z,31.80
2018-04-27T18:37:03.565Z,31.90
2018-04-27T18:39:31.138Z,31.90
2018-04-27T18:41:58.809Z,32.20
2018-04-27T18:44:26.409Z,32.20
2018-04-27T18:46:54.204Z,31.90
2018-04-27T18:49:21.777Z,32.40
2018-04-27T18:51:49.389Z,32.50
2018-04-27T18:54:17.018Z,31.10
2018-04-27T18:56:44.621Z,31.40
2018-04-27T18:59:12.181Z,30.90
2018-04-27T19:01:39.988Z,31.70
2018-04-27T19:04:07.574Z,31.10
2018-04-27T19:06:35.934Z,31.70
2018-04-27T19:09:03.492Z,31.70
2018-04-27T19:11:31.099Z,31.70
2018-04-27T19:13:58.766Z,32.40
2018-04-27T19:16:26.374Z,32.40
2018-04-27T19:18:59.778Z,33.20
2018-04-27T19:21:28.106Z,35.20
2018-04-27T19:23:55.706Z,34.60
2018-04-27T19:26:24.057Z,34.10
2018-04-27T19:28:52.584Z,33.90
2018-04-27T19:31:20.970Z,34.50
2018-04-27T19:33:48.542Z,34.40
2018-04-27T19:36:16.135Z,34.50
2018-04-27T19:38:43.847Z,34.80
2018-04-27T19:41:11.417Z,34.80
2018-04-27T19:43:39.097Z,34.70
2018-04-27T19:46:06.706Z,35.10
2018-04-27T19:48:35.122Z,36.40
2018-04-27T19:51:02.690Z,36.40
2018-04-27T19:53:30.274Z,37.80
2018-04-27T19:55:57.850Z,38.20
2018-04-27T19:58:25.469Z,38.10
2018-04-27T20:00:53.092Z,38.10
2018-04-27T20:03:21.487Z,35.30
2018-04-27T20:05:49.316Z,35.30
2018-04-27T20:08:24.381Z,35.60
2018-04-27T20:10:53.824Z,36.50
2018-04-27T20:13:23.082Z,36.50
2018-04-27T20:15:55.609Z,37.10
2018-04-27T20:18:25.022Z,37.10
2018-04-27T20:20:53.408Z,37.40
2018-04-27T20:23:21.749Z,38.00
2018-04-27T20:25:50.823Z,37.80
2018-04-27T20:28:18.396Z,38.10
2018-04-27T20:30:45.991Z,38.00
2018-04-27T20:33:15.193Z,39.00
2018-04-27T20:35:43.638Z,39.50
2018-04-27T20:38:21.113Z,39.40
2018-04-27T20:40:48.823Z,39.60
2018-04-27T20:43:20.164Z,39.90
2018-04-27T20:45:47.745Z,39.90
2018-04-27T20:48:17.879Z,41.10
2018-04-27T20:50:50.962Z,41.10
2018-04-27T20:53:18.577Z,41.20
2018-04-27T20:55:49.830Z,41.40
2018-04-27T20:58:17.459Z,41.50
2018-04-27T21:00:45.103Z,41.60
2018-04-27T21:03:12.697Z,40.50
2018-04-27T21:05:40.285Z,40.30
2018-04-27T21:08:07.961Z,40.30
2018-04-27T21:10:36.460Z,39.40
2018-04-27T21:13:04.725Z,40.10
2018-04-27T21:15:32.302Z,39.70
2018-04-27T21:18:00.010Z,40.80
2018-04-27T21:20:29.105Z,40.10
2018-04-27T21:22:57.521Z,40.00
2018-04-27T21:25:31.025Z,40.00
2018-04-27T21:27:58.666Z,40.80
2018-04-27T21:30:26.248Z,40.80
2018-04-27T21:33:07.910Z,42.10
2018-04-27T21:35:43.320Z,43.90
2018-04-27T21:38:21.294Z,43.20
2018-04-27T21:40:48.945Z,43.20
2018-04-27T21:43:16.513Z,43.30
2018-04-27T21:45:44.098Z,43.80
2018-04-27T21:48:11.693Z,43.50
2018-04-27T21:50:39.421Z,43.90
2018-04-27T21:53:06.984Z,44.30
2018-04-27T21:55:34.583Z,44.00
2018-04-27T21:58:05.865Z,44.80
2018-04-27T22:00:33.493Z,45.10
2018-04-27T22:03:03.957Z,44.80
2018-04-27T22:08:38.899Z,44.10
2018-04-27T22:11:15.265Z,45.10
2018-04-27T22:13:42.912Z,45.40
2018-04-27T22:16:14.318Z,45.90
2018-04-27T22:18:42.648Z,46.60
2018-04-27T22:21:10.478Z,46.40
2018-04-27T22:23:39.865Z,46.30
2018-04-27T22:26:17.480Z,46.40
2018-04-27T22:29:02.030Z,46.10
2018-04-27T22:31:30.579Z,46.30
2018-04-27T22:34:08.851Z,45.70
2018-04-27T22:36:37.357Z,45.70
2018-04-27T22:42:10.218Z,45.30
2018-04-27T22:44:53.440Z,45.30
2018-04-27T22:47:24.779Z,45.50
2018-04-27T22:49:52.346Z,46.40
2018-04-27T22:52:19.973Z,47.40
2018-04-27T22:55:03.327Z,46.70
2018-04-27T23:00:45.847Z,47.00
2018-04-27T23:03:13.437Z,48.00
2018-04-27T23:05:49.029Z,48.40
2018-04-27T23:08:17.510Z,48.50
2018-04-27T23:10:51.750Z,48.60
2018-04-27T23:13:26.994Z,48.40
2018-04-27T23:15:55.293Z,48.80
2018-04-27T23:18:25.431Z,48.50
2018-04-27T23:20:54.918Z,49.00
2018-04-27T23:23:22.528Z,48.70
2018-04-27T23:25:50.918Z,49.00
2018-04-27T23:28:18.622Z,49.30
2018-04-27T23:30:46.212Z,49.60
2018-04-27T23:33:14.584Z,49.90
2018-04-27T23:35:48.613Z,50.20
2018-04-27T23:38:16.184Z,50.20
2018-04-27T23:40:45.234Z,50.40
2018-04-27T23:43:13.545Z,50.80
2018-04-27T23:45:43.801Z,50.90
2018-04-27T23:48:12.143Z,50.80
2018-04-27T23:50:39.721Z,50.90
2018-04-27T23:53:07.284Z,51.00
2018-04-27T23:55:38.715Z,51.10
2018-04-27T23:58:06.289Z,51.50
